createdAt,value
2022-09-17T00:00:13.708Z,102247.91
2022-09-17T00:02:47.857Z,102237.53
2022-09-17T00:05:17.167Z,102246.00
2022-09-17T00:07:46.328Z,102249.63
2022-09-17T00:10:15.474Z,102250.47
2022-09-17T00:12:45.981Z,102248.56
2022-09-17T00:15:15.947Z,102193.41
2022-09-17T00:17:45.413Z,102247.50
2022-09-17T00:20:14.885Z,102240.13
2022-09-17T00:22:43.988Z,102246.16
2022-09-17T00:25:13.231Z,102243.44
2022-09-17T00:27:42.533Z,102233.06
2022-09-17T00:30:15.084Z,102233.88
2022-09-17T00:32:44.261Z,102239.06
2022-09-17T00:35:14.633Z,102234.44
2022-09-17T00:37:43.769Z,102228.22
2022-09-17T00:40:12.998Z,102217.84
2022-09-17T00:42:42.212Z,102233.72
2022-09-17T00:45:13.443Z,102234.88
2022-09-17T00:47:46.849Z,102241.16
2022-09-17T00:50:19.532Z,102233.78
2022-09-17T00:52:54.330Z,102233.53
2022-09-17T00:55:29.015Z,102243.69
2022-09-17T00:58:00.898Z,102214.16
2022-09-17T01:00:32.397Z,102225.41
2022-09-17T01:03:02.267Z,102242.34
2022-09-17T01:05:43.560Z,102245.13
2022-09-17T01:08:24.050Z,102210.97
2022-09-17T01:11:28.579Z,102233.66
2022-09-17T01:14:19.199Z,102232.31
2022-09-17T01:17:01.609Z,102238.94
2022-09-17T01:20:06.664Z,102241.91
2022-09-17T01:22:42.373Z,102231.81
2022-09-17T01:25:25.147Z,102245.75
2022-09-17T01:28:29.998Z,102260.28
2022-09-17T01:31:36.283Z,102251.00
2022-09-17T01:34:18.242Z,102243.91
2022-09-17T01:37:04.453Z,102225.81
2022-09-17T01:39:45.454Z,102232.41
2022-09-17T01:42:26.158Z,102225.56
2022-09-17T01:45:01.563Z,102227.50
2022-09-17T01:47:37.403Z,102213.53
2022-09-17T01:50:14.066Z,102231.31
2022-09-17T01:52:45.192Z,102230.22
2022-09-17T01:55:17.514Z,102194.69
2022-09-17T01:57:56.107Z,102220.69
2022-09-17T02:00:25.690Z,102235.97
2022-09-17T02:03:03.640Z,102246.94
2022-09-17T02:05:41.532Z,102237.66
2022-09-17T02:08:15.906Z,102249.94
2022-09-17T02:10:49.303Z,102243.94
2022-09-17T02:13:24.378Z,102237.41
2022-09-17T02:15:58.613Z,102243.69
2022-09-17T02:18:38.902Z,102243.97
2022-09-17T02:21:16.750Z,102229.75
2022-09-17T02:23:58.124Z,102236.84
2022-09-17T02:26:29.042Z,102245.06
2022-09-17T02:29:06.788Z,102245.34
2022-09-17T02:31:36.085Z,102238.53
2022-09-17T02:34:08.692Z,102243.97
2022-09-17T02:36:38.614Z,102240.13
2022-09-17T02:39:07.766Z,102233.59
2022-09-17T02:41:48.026Z,102237.41
2022-09-17T02:44:30.010Z,102237.69
2022-09-17T02:47:33.366Z,102239.59
2022-09-17T02:50:19.936Z,102238.53
2022-09-17T02:53:07.898Z,102237.97
2022-09-17T02:55:44.437Z,102213.59
2022-09-17T02:58:27.150Z,102232.47
2022-09-17T03:01:01.726Z,102228.66
2022-09-17T03:03:35.645Z,102224.84
2022-09-17T03:06:07.226Z,102220.19
2022-09-17T03:08:40.232Z,102225.13
2022-09-17T03:11:13.035Z,102220.47
2022-09-17T03:13:42.482Z,102224.56
2022-09-17T03:16:11.696Z,102219.66
2022-09-17T03:18:40.915Z,102233.31
2022-09-17T03:21:12.530Z,102226.19
2022-09-17T03:23:41.674Z,102239.88
2022-09-17T03:26:10.805Z,102228.09
2022-09-17T03:28:39.901Z,102215.81
2022-09-17T03:31:09.214Z,102225.94
2022-09-17T03:33:38.369Z,102216.63
2022-09-17T03:36:08.089Z,102201.59
2022-09-17T03:38:38.713Z,102216.09
2022-09-17T03:41:08.732Z,102218.28
2022-09-17T03:43:39.903Z,102220.47
2022-09-17T03:46:09.214Z,102230.88
2022-09-17T03:48:39.787Z,102222.94
2022-09-17T03:51:09.728Z,102164.69
2022-09-17T03:53:40.465Z,102222.66
2022-09-17T03:56:10.014Z,102221.03
2022-09-17T03:58:39.253Z,102217.22
2022-09-17T04:01:08.414Z,102220.19
2022-09-17T04:03:37.586Z,102200.00
2022-09-17T04:06:07.195Z,102229.78
2022-09-17T04:08:36.848Z,102227.03
2022-09-17T04:11:07.899Z,102222.13
2022-09-17T04:13:37.433Z,102225.69
2022-09-17T04:16:07.181Z,102224.56
2022-09-17T04:18:36.505Z,102210.09
2022-09-17T04:21:06.193Z,102222.66
2022-09-17T04:23:35.318Z,102225.13
2022-09-17T04:26:04.681Z,102209.53
2022-09-17T04:28:35.256Z,102230.59
2022-09-17T04:31:04.489Z,102229.25
2022-09-17T04:33:33.705Z,102216.66
2022-09-17T04:36:03.194Z,102212.81
2022-09-17T04:38:33.653Z,102221.84
2022-09-17T04:41:02.937Z,102209.28
2022-09-17T04:43:32.052Z,102225.13
2022-09-17T04:46:02.868Z,102216.09
2022-09-17T04:48:32.657Z,102230.31
2022-09-17T04:51:02.074Z,102222.13
2022-09-17T04:53:34.193Z,102214.16
2022-09-17T04:56:05.871Z,102221.84
2022-09-17T04:58:36.338Z,102231.97
2022-09-17T05:01:09.054Z,102224.84
2022-09-17T05:03:38.095Z,102235.78
2022-09-17T05:06:08.074Z,102239.88
2022-09-17T05:08:39.284Z,102235.50
2022-09-17T05:11:08.387Z,102237.41
2022-09-17T05:13:37.577Z,102230.84
2022-09-17T05:16:08.372Z,102231.91
2022-09-17T05:18:37.609Z,102218.81
2022-09-17T05:21:08.969Z,102231.41
2022-09-17T05:23:38.247Z,102201.81
2022-09-17T05:26:07.375Z,102231.91
2022-09-17T05:28:36.669Z,102244.75
2022-09-17T05:31:07.574Z,102225.06
2022-09-17T05:33:36.926Z,102235.72
2022-09-17T05:36:07.146Z,102235.72
2022-09-17T05:38:36.422Z,102234.63
2022-09-17T05:41:07.357Z,102234.09
2022-09-17T05:43:36.790Z,102204.50
2022-09-17T05:46:08.137Z,102234.09
2022-09-17T05:48:37.334Z,102235.19
2022-09-17T05:51:06.874Z,102243.66
2022-09-17T05:53:36.055Z,102236.28
2022-09-17T05:56:05.548Z,102236.81
2022-09-17T05:58:34.780Z,102233.50
2022-09-17T06:01:04.409Z,102236.25
2022-09-17T06:03:35.803Z,102227.75
2022-09-17T06:06:05.604Z,102229.69
2022-09-17T06:08:36.898Z,102232.94
2022-09-17T06:11:06.920Z,102228.03
2022-09-17T06:13:36.792Z,102230.25
2022-09-17T06:16:06.504Z,102239.28
2022-09-17T06:18:37.169Z,102243.91
2022-09-17T06:21:06.920Z,102245.03
2022-09-17T06:23:37.298Z,102235.19
2022-09-17T06:26:07.964Z,102240.97
2022-09-17T06:28:41.413Z,102216.59
2022-09-17T06:31:13.155Z,102245.63
2022-09-17T06:33:43.731Z,102246.72
2022-09-17T06:36:14.650Z,102244.25
2022-09-17T06:38:44.620Z,102253.84
2022-09-17T06:41:14.759Z,102249.47
2022-09-17T06:43:43.946Z,102255.75
2022-09-17T06:46:13.390Z,102244.03
2022-09-17T06:48:43.986Z,102252.75
2022-09-17T06:51:14.712Z,102262.34
2022-09-17T06:53:43.907Z,102274.38
2022-09-17T06:56:13.071Z,102279.31
2022-09-17T06:58:43.827Z,102273.56
2022-09-17T07:01:14.060Z,102274.09
2022-09-17T07:03:44.980Z,102269.69
2022-09-17T07:06:14.084Z,102256.00
2022-09-17T07:08:43.680Z,102272.66
2022-09-17T07:11:12.777Z,102275.91
2022-09-17T07:13:42.055Z,102276.41
2022-09-17T07:16:12.125Z,102269.72
2022-09-17T07:18:41.336Z,102256.88
2022-09-17T07:21:12.702Z,102279.47
2022-09-17T07:23:41.964Z,102261.63
2022-09-17T07:26:16.503Z,102253.69
2022-09-17T07:28:46.096Z,102264.25
2022-09-17T07:31:16.911Z,102276.25
2022-09-17T07:33:47.320Z,102258.94
2022-09-17T07:36:18.900Z,102269.16
2022-09-17T07:38:48.448Z,102275.25
2022-09-17T07:41:19.014Z,102281.28
2022-09-17T07:43:48.271Z,102281.06
2022-09-17T07:46:19.617Z,102272.06
2022-09-17T07:48:49.998Z,102271.78
2022-09-17T07:51:23.194Z,102262.28
2022-09-17T07:53:53.801Z,102274.50
2022-09-17T07:56:23.486Z,102280.34
2022-09-17T07:58:53.059Z,102271.34
2022-09-17T08:01:22.960Z,102269.78
2022-09-17T08:03:54.975Z,102279.19
2022-09-17T08:06:28.377Z,102282.72
2022-09-17T08:08:58.153Z,102280.03
2022-09-17T08:11:59.826Z,102288.31
2022-09-17T08:14:19.260Z,102287.06
2022-09-17T08:16:48.362Z,102291.13
2022-09-17T08:19:20.466Z,102292.75
2022-09-17T08:21:51.173Z,102294.00
2022-09-17T08:24:20.307Z,102274.06
2022-09-17T08:26:49.432Z,102286.50
2022-09-17T08:29:19.035Z,102293.81
2022-09-17T08:31:48.413Z,102296.75
2022-09-17T08:34:17.532Z,102296.78
2022-09-17T08:36:46.640Z,102298.22
2022-09-17T08:39:18.233Z,102291.84
2022-09-17T08:41:56.567Z,102304.47
2022-09-17T08:44:33.427Z,102307.34
2022-09-17T08:47:10.421Z,102308.34
2022-09-17T08:49:52.189Z,102300.25
2022-09-17T08:53:02.193Z,102303.00
2022-09-17T08:55:43.880Z,102306.25
2022-09-17T08:58:52.704Z,102307.31
2022-09-17T09:01:35.814Z,102285.47
2022-09-17T09:04:56.087Z,102308.59
2022-09-17T09:07:29.003Z,102301.38
2022-09-17T09:10:14.791Z,102297.94
2022-09-17T09:12:46.874Z,102306.72
2022-09-17T09:15:38.311Z,102287.28
2022-09-17T09:18:19.499Z,102308.53
2022-09-17T09:20:55.759Z,102304.34
2022-09-17T09:23:36.013Z,102307.00
2022-09-17T09:26:15.473Z,102310.84
2022-09-17T09:29:06.025Z,102298.19
2022-09-17T09:32:15.230Z,102311.16
2022-09-17T09:34:46.318Z,102307.84
2022-09-17T09:37:23.227Z,102312.72
2022-09-17T09:39:55.215Z,102303.31
2022-09-17T09:42:32.051Z,102309.91
2022-09-17T09:45:15.054Z,102295.63
2022-09-17T09:48:04.825Z,102310.72
2022-09-17T09:51:05.778Z,102300.44
2022-09-17T09:53:54.444Z,102303.56
2022-09-17T09:56:50.592Z,102306.72
2022-09-17T09:59:20.990Z,102309.25
2022-09-17T10:01:51.982Z,102308.91
2022-09-17T10:04:23.784Z,102310.19
2022-09-17T10:06:55.871Z,102303.97
2022-09-17T10:09:24.947Z,102298.38
2022-09-17T10:12:07.319Z,102294.91
2022-09-17T10:14:38.563Z,102286.94
2022-09-17T10:17:20.927Z,102293.66
2022-09-17T10:20:22.749Z,102295.84
2022-09-17T10:22:52.472Z,102307.13
2022-09-17T10:25:32.967Z,102299.13
2022-09-17T10:28:05.893Z,102305.38
2022-09-17T10:30:36.235Z,102312.75
2022-09-17T10:33:24.716Z,102311.13
2022-09-17T10:36:01.393Z,102295.38
2022-09-17T10:38:35.233Z,102303.66
2022-09-17T10:41:21.846Z,102293.88
2022-09-17T10:43:52.032Z,102298.25
2022-09-17T10:46:28.024Z,102290.97
2022-09-17T10:49:13.255Z,102294.88
2022-09-17T10:51:42.623Z,102291.63
2022-09-17T10:54:40.762Z,102286.06
2022-09-17T10:57:17.463Z,102293.19
2022-09-17T11:00:13.378Z,102285.53
2022-09-17T11:03:47.905Z,102294.69
2022-09-17T11:06:46.891Z,102298.28
2022-09-17T11:09:28.474Z,102298.97
2022-09-17T11:12:15.416Z,102293.00
2022-09-17T11:14:56.148Z,102285.31
2022-09-17T11:18:27.314Z,102284.81
2022-09-17T11:21:25.864Z,102272.16
2022-09-17T11:24:24.911Z,102276.41
2022-09-17T11:27:06.390Z,102269.66
2022-09-17T11:29:58.593Z,102261.16
2022-09-17T11:32:53.490Z,102257.50
2022-09-17T11:35:26.803Z,102261.88
2022-09-17T11:38:03.094Z,102237.59
2022-09-17T11:40:41.232Z,102259.66
2022-09-17T11:43:22.496Z,102259.66
2022-09-17T11:46:03.049Z,102262.69
2022-09-17T11:48:44.544Z,102260.00
2022-09-17T11:51:27.556Z,102267.31
2022-09-17T11:54:07.048Z,102255.25
2022-09-17T11:56:44.544Z,102265.09
2022-09-17T11:59:23.388Z,102269.28
2022-09-17T12:01:58.722Z,102262.22
2022-09-17T12:04:45.713Z,102256.88
2022-09-17T12:07:42.523Z,102252.47
2022-09-17T12:10:38.275Z,102249.44
2022-09-17T12:13:24.175Z,102238.28
2022-09-17T12:16:08.032Z,102250.06
2022-09-17T12:18:52.840Z,102241.31
2022-09-17T12:21:27.728Z,102236.91
2022-09-17T12:24:04.703Z,102233.34
2022-09-17T12:26:57.050Z,102237.34
2022-09-17T12:30:05.765Z,102228.91
2022-09-17T12:33:15.208Z,102215.75
2022-09-17T12:36:05.365Z,102220.16
2022-09-17T12:39:11.180Z,102232.44
2022-09-17T12:41:58.281Z,102226.53
2022-09-17T12:45:02.905Z,102220.94
2022-09-17T12:48:14.065Z,102213.97
2022-09-17T12:51:04.072Z,102209.19
2022-09-17T12:53:43.903Z,102197.44
2022-09-17T12:56:37.847Z,102218.97
2022-09-17T12:59:14.677Z,102229.59
2022-09-17T13:01:55.418Z,102227.81
2022-09-17T13:05:02.400Z,102233.69
2022-09-17T13:07:56.181Z,102223.28
2022-09-17T13:11:06.373Z,102211.97
2022-09-17T13:13:49.470Z,102212.34
2022-09-17T13:16:26.325Z,102204.22
2022-09-17T13:19:15.936Z,102195.28
2022-09-17T13:21:54.696Z,102191.50
2022-09-17T13:24:27.151Z,102202.22
2022-09-17T13:26:58.320Z,102203.75
2022-09-17T13:30:04.437Z,102197.16
2022-09-17T13:32:51.525Z,102197.69
2022-09-17T13:35:50.292Z,102192.44
2022-09-17T13:38:23.898Z,102183.44
2022-09-17T13:41:13.978Z,102182.66
2022-09-17T13:43:47.865Z,102183.88
2022-09-17T13:46:25.131Z,102169.44
2022-09-17T13:49:01.095Z,102185.19
2022-09-17T13:51:55.540Z,102179.69
2022-09-17T13:54:37.322Z,102171.19
2022-09-17T13:57:14.667Z,102162.94
2022-09-17T14:00:00.102Z,102166.72
2022-09-17T14:02:37.699Z,102160.59
2022-09-17T14:05:37.599Z,102166.56
2022-09-17T14:08:31.238Z,102149.75
2022-09-17T14:11:06.024Z,102146.16
2022-09-17T14:13:46.043Z,102145.81
2022-09-17T14:16:47.161Z,102159.03
2022-09-17T14:19:36.873Z,102157.06
2022-09-17T14:22:16.589Z,102161.09
2022-09-17T14:24:54.489Z,102146.31
2022-09-17T14:27:44.592Z,102152.88
2022-09-17T14:30:17.748Z,102145.56
2022-09-17T14:32:56.677Z,102141.31
2022-09-17T14:35:35.129Z,102143.47
2022-09-17T14:38:12.829Z,102131.13
2022-09-17T14:40:47.059Z,102137.81
2022-09-17T14:43:25.201Z,102136.63
2022-09-17T14:45:55.326Z,102138.00
2022-09-17T14:48:33.430Z,102127.56
2022-09-17T14:51:30.743Z,102132.81
2022-09-17T14:54:20.730Z,102127.28
2022-09-17T14:57:01.584Z,102116.69
2022-09-17T14:59:50.245Z,102132.13
2022-09-17T15:02:36.538Z,102130.22
2022-09-17T15:05:21.646Z,102128.53
2022-09-17T15:07:51.770Z,102094.00
2022-09-17T15:10:24.115Z,102110.59
2022-09-17T15:12:55.281Z,102120.16
2022-09-17T15:15:27.780Z,102112.72
2022-09-17T15:17:56.844Z,102108.22
2022-09-17T15:20:32.329Z,102104.78
2022-09-17T15:23:13.445Z,102093.03
2022-09-17T15:25:45.507Z,102088.19
2022-09-17T15:28:29.599Z,102111.66
2022-09-17T15:30:58.827Z,102106.50
2022-09-17T15:33:29.777Z,102108.31
2022-09-17T15:36:11.092Z,102085.09
2022-09-17T15:38:42.241Z,102081.63
2022-09-17T15:41:30.844Z,102099.13
2022-09-17T15:44:30.810Z,102098.22
2022-09-17T15:47:53.316Z,102097.59
2022-09-17T15:50:25.558Z,102098.06
2022-09-17T15:53:14.137Z,102099.22
2022-09-17T15:55:48.188Z,102083.69
2022-09-17T15:58:27.928Z,102078.34
2022-09-17T16:01:53.940Z,102090.47
2022-09-17T16:04:32.430Z,102077.78
2022-09-17T16:07:22.044Z,102068.88
2022-09-17T16:09:52.958Z,102084.63
2022-09-17T16:12:24.755Z,102080.25
2022-09-17T16:14:56.086Z,102089.44
2022-09-17T16:17:33.218Z,102094.78
2022-09-17T16:20:08.934Z,102095.53
2022-09-17T16:22:38.067Z,102097.16
2022-09-17T16:25:08.431Z,102083.16
2022-09-17T16:27:51.411Z,102098.09
2022-09-17T16:30:22.943Z,102071.78
2022-09-17T16:32:54.806Z,102098.03
2022-09-17T16:35:26.951Z,102088.06
2022-09-17T16:37:58.097Z,102096.06
2022-09-17T16:40:31.562Z,102092.63
2022-09-17T16:43:03.193Z,102082.75
2022-09-17T16:45:32.834Z,102081.06
2022-09-17T16:48:04.392Z,102068.06
2022-09-17T16:50:34.444Z,102081.13
2022-09-17T16:53:05.490Z,102090.59
2022-09-17T16:55:34.875Z,102092.22
2022-09-17T16:58:04.013Z,102094.97
2022-09-17T17:00:33.252Z,102076.56
2022-09-17T17:03:06.888Z,102085.06
2022-09-17T17:05:38.828Z,102092.81
2022-09-17T17:08:09.183Z,102074.31
2022-09-17T17:10:40.036Z,102088.13
2022-09-17T17:13:09.171Z,102070.75
2022-09-17T17:15:41.466Z,102080.38
2022-09-17T17:18:12.976Z,102098.44
2022-09-17T17:20:45.458Z,102070.31
2022-09-17T17:23:18.035Z,102084.28
2022-09-17T17:25:49.553Z,102088.34
2022-09-17T17:28:18.718Z,102095.16
2022-09-17T17:30:49.048Z,102072.31
2022-09-17T17:33:19.797Z,102089.38
2022-09-17T17:35:48.949Z,102093.47
2022-09-17T17:38:19.330Z,102085.88
2022-09-17T17:40:48.567Z,102086.84
2022-09-17T17:43:17.749Z,102089.34
2022-09-17T17:45:46.889Z,102055.31
2022-09-17T17:48:16.063Z,102087.06
2022-09-17T17:50:46.565Z,102097.63
2022-09-17T17:53:15.781Z,102095.66
2022-09-17T17:55:44.918Z,102083.00
2022-09-17T17:58:14.129Z,102084.28
2022-09-17T18:00:43.193Z,102106.94
2022-09-17T18:03:12.361Z,102115.38
2022-09-17T18:05:41.798Z,102090.31
2022-09-17T18:08:12.255Z,102115.66
2022-09-17T18:10:41.503Z,102110.94
2022-09-17T18:13:10.733Z,102118.28
2022-09-17T18:15:39.879Z,102115.50
2022-09-17T18:18:09.029Z,102113.38
2022-09-17T18:20:38.164Z,102114.44
2022-09-17T18:23:07.311Z,102118.81
2022-09-17T18:25:37.775Z,102104.16
2022-09-17T18:28:06.874Z,102118.31
2022-09-17T18:30:38.644Z,102099.03
2022-09-17T18:33:07.821Z,102120.19
2022-09-17T18:35:37.619Z,102117.88
2022-09-17T18:38:07.214Z,102105.66
2022-09-17T18:40:37.804Z,102117.03
2022-09-17T18:43:06.969Z,102109.69
2022-09-17T18:45:36.128Z,102105.47
2022-09-17T18:48:07.001Z,102095.81
2022-09-17T18:50:36.505Z,102105.91
2022-09-17T18:53:06.066Z,102100.50
2022-09-17T18:55:35.237Z,102110.41
2022-09-17T18:58:05.725Z,102111.38
2022-09-17T19:00:34.895Z,102111.19
2022-09-17T19:03:04.067Z,102109.38
2022-09-17T19:05:33.216Z,102116.34
2022-09-17T19:08:02.713Z,102118.91
2022-09-17T19:10:33.457Z,102112.09
2022-09-17T19:13:04.586Z,102118.44
2022-09-17T19:15:35.305Z,102117.88
2022-09-17T19:18:04.537Z,102111.38
2022-09-17T19:20:38.799Z,102113.13
2022-09-17T19:23:09.082Z,102112.63
2022-09-17T19:25:39.170Z,102096.44
2022-09-17T19:28:09.856Z,102117.25
2022-09-17T19:30:39.063Z,102108.44
2022-09-17T19:33:08.232Z,102124.84
2022-09-17T19:35:37.367Z,102117.53
2022-09-17T19:38:11.160Z,102114.00
2022-09-17T19:40:44.238Z,102126.41
2022-09-17T19:43:15.224Z,102121.53
2022-09-17T19:45:44.630Z,102119.56
2022-09-17T19:48:13.713Z,102128.16
2022-09-17T19:50:52.687Z,102125.28
2022-09-17T19:53:22.330Z,102110.00
2022-09-17T19:55:51.582Z,102131.00
2022-09-17T19:58:22.719Z,102111.22
2022-09-17T20:00:57.139Z,102122.66
2022-09-17T20:03:27.027Z,102124.06
2022-09-17T20:06:00.868Z,102127.53
2022-09-17T20:08:30.731Z,102122.25
2022-09-17T20:11:06.114Z,102135.31
2022-09-17T20:13:37.075Z,102118.38
2022-09-17T20:16:06.781Z,102117.06
2022-09-17T20:18:37.313Z,102130.84
2022-09-17T20:21:11.176Z,102122.50
2022-09-17T20:23:40.810Z,102125.94
2022-09-17T20:26:10.199Z,102131.78
2022-09-17T20:28:41.106Z,102124.94
2022-09-17T20:31:14.066Z,102125.88
2022-09-17T20:33:44.316Z,102118.66
2022-09-17T20:36:15.486Z,102126.00
2022-09-17T20:39:10.602Z,102143.13
2022-09-17T20:41:36.135Z,102135.97
2022-09-17T20:44:08.665Z,102119.22
2022-09-17T20:46:38.152Z,102135.56
2022-09-17T20:49:07.546Z,102130.53
2022-09-17T20:51:36.746Z,102134.91
2022-09-17T20:54:06.330Z,102109.00
2022-09-17T20:56:37.432Z,102120.44
2022-09-17T20:59:14.461Z,102129.50
2022-09-17T21:01:45.939Z,102120.88
2022-09-17T21:04:19.198Z,102137.28
2022-09-17T21:06:52.398Z,102132.91
2022-09-17T21:09:22.095Z,102119.94
2022-09-17T21:11:51.315Z,102120.56
2022-09-17T21:14:21.982Z,102120.50
2022-09-17T21:16:51.862Z,102121.09
2022-09-17T21:19:26.379Z,102121.72
2022-09-17T21:21:56.462Z,102064.63
2022-09-17T21:24:26.255Z,102106.84
2022-09-17T21:26:55.611Z,102105.19
2022-09-17T21:29:26.594Z,102100.63
2022-09-17T21:31:56.757Z,102112.97
2022-09-17T21:34:26.064Z,102100.91
2022-09-17T21:36:55.296Z,102107.97
2022-09-17T21:39:24.441Z,102090.75
2022-09-17T21:41:53.582Z,102098.00
2022-09-17T21:44:22.704Z,102089.09
2022-09-17T21:46:57.528Z,102102.88
2022-09-17T21:49:27.067Z,102085.22
2022-09-17T21:51:56.209Z,102106.84
2022-09-17T21:54:28.180Z,102073.59
2022-09-17T21:56:59.366Z,102104.81
2022-09-17T21:59:28.623Z,102102.38
2022-09-17T22:01:59.451Z,102095.75
2022-09-17T22:04:28.623Z,102093.78
2022-09-17T22:06:59.328Z,102101.56
2022-09-17T22:09:30.334Z,102101.56
2022-09-17T22:12:01.269Z,102097.75
2022-09-17T22:14:30.371Z,102087.47
2022-09-17T22:17:01.155Z,102099.00
2022-09-17T22:19:30.318Z,102092.78
2022-09-17T22:21:59.435Z,102105.09
2022-09-17T22:24:28.956Z,102108.47
2022-09-17T22:26:58.612Z,102087.75
2022-09-17T22:29:31.577Z,102101.13
2022-09-17T22:32:02.321Z,102094.81
2022-09-17T22:34:31.639Z,102091.53
2022-09-17T22:37:01.040Z,102096.44
2022-09-17T22:39:30.222Z,102087.16
2022-09-17T22:41:59.565Z,102072.09
2022-09-17T22:44:31.675Z,102089.81
2022-09-17T22:47:02.291Z,102087.03
2022-09-17T22:49:31.603Z,102038.69
2022-09-17T22:52:00.807Z,102069.91
2022-09-17T22:54:30.003Z,102086.66
2022-09-17T22:56:59.116Z,102058.31
2022-09-17T22:59:28.464Z,102086.13
2022-09-17T23:01:57.749Z,102082.13
2022-09-17T23:04:28.572Z,102078.28
2022-09-17T23:06:57.777Z,102070.31
2022-09-17T23:09:26.979Z,102081.16
2022-09-17T23:11:56.131Z,102077.69
2022-09-17T23:14:25.420Z,102063.59
2022-09-17T23:16:54.629Z,102076.03
2022-09-17T23:19:24.050Z,102057.47
2022-09-17T23:21:54.667Z,102054.22
2022-09-17T23:24:24.122Z,102046.78
2022-09-17T23:26:53.306Z,102060.38
2022-09-17T23:29:22.438Z,102052.81
2022-09-17T23:31:51.704Z,102052.81
2022-09-17T23:34:21.277Z,102048.13
2022-09-17T23:36:50.493Z,102034.44
2022-09-17T23:39:21.010Z,102038.31
2022-09-17T23:41:50.135Z,102037.81
2022-09-17T23:44:19.379Z,102033.41
2022-09-17T23:46:48.677Z,102032.41
2022-09-17T23:49:17.888Z,102034.66
2022-09-17T23:51:47.292Z,102019.44
2022-09-17T23:54:16.644Z,102024.56
2022-09-17T23:56:47.120Z,102022.63
2022-09-17T23:59:16.374Z,102027.00
